createdAt,value
2019-01-25T00:00:57.421Z,-4.09
2019-01-25T00:03:25.982Z,-4.06
2019-01-25T00:05:54.589Z,-4.06
2019-01-25T00:08:26.462Z,-4.09
2019-01-25T00:10:55.028Z,-4.03
2019-01-25T00:13:25.625Z,-3.97
2019-01-25T00:15:54.534Z,-4.00
2019-01-25T00:18:26.506Z,-3.80
2019-01-25T00:20:55.998Z,-3.91
2019-01-25T00:23:25.101Z,-3.98
2019-01-25T00:25:54.804Z,-4.03
2019-01-25T00:28:23.622Z,-3.99
2019-01-25T00:30:52.269Z,-3.99
2019-01-25T00:33:20.989Z,-3.93
2019-01-25T00:35:49.586Z,-3.88
2019-01-25T00:38:18.225Z,-4.00
2019-01-25T00:40:46.887Z,-4.07
2019-01-25T00:43:15.532Z,-4.12
2019-01-25T00:45:44.125Z,-4.10
2019-01-25T00:48:12.768Z,-4.11
2019-01-25T00:50:41.802Z,-4.10
2019-01-25T00:53:10.438Z,-3.97
2019-01-25T00:55:39.066Z,-4.02
2019-01-25T00:58:07.785Z,-3.99
2019-01-25T01:00:36.502Z,-3.88
2019-01-25T01:03:06.812Z,-3.89
2019-01-25T01:05:35.445Z,-3.89
2019-01-25T01:08:05.041Z,-3.97
2019-01-25T01:10:33.639Z,-3.99
2019-01-25T01:13:02.765Z,-3.80
2019-01-25T01:15:31.731Z,-3.86
2019-01-25T01:18:00.647Z,-3.89
2019-01-25T01:20:29.561Z,-3.93
2019-01-25T01:22:58.481Z,-4.07
2019-01-25T01:25:27.049Z,-4.18
2019-01-25T01:27:55.618Z,-4.26
2019-01-25T01:30:24.597Z,-4.24
2019-01-25T01:32:53.532Z,-4.17
2019-01-25T01:35:22.136Z,-4.13
2019-01-25T01:37:50.986Z,-4.02
2019-01-25T01:40:22.415Z,-4.12
2019-01-25T01:42:53.519Z,-4.16
2019-01-25T01:45:22.375Z,-4.09
2019-01-25T01:47:51.101Z,-4.13
2019-01-25T01:50:20.314Z,-4.10
2019-01-25T01:52:49.620Z,-4.12
2019-01-25T01:55:18.284Z,-4.16
2019-01-25T01:57:47.129Z,-4.12
2019-01-25T02:00:43.561Z,-4.23
2019-01-25T02:03:15.256Z,-3.98
2019-01-25T02:05:44.130Z,-3.91
2019-01-25T02:08:12.726Z,-3.76
2019-01-25T02:10:41.323Z,-3.68
2019-01-25T02:13:10.340Z,-3.76
2019-01-25T02:15:39.232Z,-3.72
2019-01-25T02:18:07.830Z,-3.67
2019-01-25T02:20:36.390Z,-3.63
2019-01-25T02:23:05.177Z,-3.72
2019-01-25T02:25:34.205Z,-3.64
2019-01-25T02:28:02.886Z,-3.69
2019-01-25T02:30:32.159Z,-3.83
2019-01-25T02:33:00.748Z,-3.93
2019-01-25T02:35:29.628Z,-4.01
2019-01-25T02:37:58.206Z,-4.13
2019-01-25T02:40:27.379Z,-4.18
2019-01-25T02:42:56.016Z,-4.07
2019-01-25T02:45:25.643Z,-4.15
2019-01-25T02:47:54.716Z,-4.17
2019-01-25T02:50:23.305Z,-4.14
2019-01-25T02:52:53.618Z,-4.19
2019-01-25T02:55:24.809Z,-4.20
2019-01-25T02:57:53.424Z,-4.16
2019-01-25T03:00:26.287Z,-4.09
2019-01-25T03:02:55.550Z,-4.07
2019-01-25T03:05:27.272Z,-4.07
2019-01-25T03:07:58.529Z,-3.90
2019-01-25T03:10:29.098Z,-3.90
2019-01-25T03:12:57.543Z,-3.93
2019-01-25T03:15:26.839Z,-4.02
2019-01-25T03:17:56.037Z,-4.04
2019-01-25T03:20:24.942Z,-4.02
2019-01-25T03:22:56.797Z,-3.77
2019-01-25T03:25:26.636Z,-3.76
2019-01-25T03:27:55.450Z,-3.60
2019-01-25T03:30:25.818Z,-3.81
2019-01-25T03:32:54.542Z,-3.91
2019-01-25T03:35:24.828Z,-3.99
2019-01-25T03:37:53.828Z,-4.02
2019-01-25T03:40:24.458Z,-4.09
2019-01-25T03:42:53.469Z,-3.86
2019-01-25T03:45:27.478Z,-3.86
2019-01-25T03:47:56.305Z,-3.66
2019-01-25T03:50:26.907Z,-3.92
2019-01-25T03:52:58.560Z,-3.98
2019-01-25T03:55:27.862Z,-3.78
2019-01-25T03:57:56.565Z,-3.81
2019-01-25T04:00:29.626Z,-3.91
2019-01-25T04:02:58.974Z,-3.98
2019-01-25T04:05:27.796Z,-3.87
2019-01-25T04:07:56.401Z,-3.55
2019-01-25T04:10:26.996Z,-3.45
2019-01-25T04:12:55.859Z,-3.53
2019-01-25T04:15:29.654Z,-3.59
2019-01-25T04:18:01.469Z,-3.63
2019-01-25T04:20:33.062Z,-3.90
2019-01-25T04:23:04.776Z,-3.89
2019-01-25T04:25:33.567Z,-3.78
2019-01-25T04:28:02.293Z,-3.68
2019-01-25T04:30:33.567Z,-3.63
2019-01-25T04:33:05.686Z,-3.68
2019-01-25T04:35:35.474Z,-3.72
2019-01-25T04:38:07.042Z,-3.83
2019-01-25T04:40:38.290Z,-3.76
2019-01-25T04:43:09.812Z,-4.02
2019-01-25T04:45:41.119Z,-4.04
2019-01-25T04:48:15.718Z,-4.03
2019-01-25T04:50:47.237Z,-4.05
2019-01-25T04:53:18.839Z,-4.00
2019-01-25T04:55:47.451Z,-3.98
2019-01-25T04:58:16.107Z,-4.10
2019-01-25T05:00:44.724Z,-4.16
2019-01-25T05:03:13.664Z,-4.14
2019-01-25T05:05:42.313Z,-4.05
2019-01-25T05:08:13.690Z,-4.09
2019-01-25T05:10:42.413Z,-4.01
2019-01-25T05:13:11.127Z,-3.99
2019-01-25T05:15:39.845Z,-3.83
2019-01-25T05:18:08.856Z,-3.67
2019-01-25T05:20:37.680Z,-3.65
2019-01-25T05:23:07.827Z,-3.50
2019-01-25T05:25:36.522Z,-3.40
2019-01-25T05:28:13.690Z,-3.39
2019-01-25T05:31:00.313Z,-3.62
2019-01-25T05:33:28.956Z,-3.69
2019-01-25T05:35:57.630Z,-3.69
2019-01-25T05:38:29.292Z,-3.86
2019-01-25T05:40:58.151Z,-3.98
2019-01-25T05:43:26.762Z,-3.96
2019-01-25T05:45:55.485Z,-4.11
2019-01-25T05:48:31.572Z,-4.09
2019-01-25T05:51:03.166Z,-4.13
2019-01-25T05:53:31.734Z,-4.11
2019-01-25T05:56:00.401Z,-4.13
2019-01-25T05:58:32.141Z,-4.19
2019-01-25T06:01:00.835Z,-3.90
2019-01-25T06:03:32.128Z,-3.72
2019-01-25T06:06:01.240Z,-3.61
2019-01-25T06:08:33.755Z,-3.53
2019-01-25T06:11:06.854Z,-3.60
2019-01-25T06:13:38.963Z,-3.78
2019-01-25T06:16:07.631Z,-3.87
2019-01-25T06:18:39.198Z,-3.86
2019-01-25T06:21:11.124Z,-3.71
2019-01-25T06:23:39.670Z,-3.67
2019-01-25T06:26:11.203Z,-3.75
2019-01-25T06:28:39.881Z,-3.77
2019-01-25T06:31:08.624Z,-3.55
2019-01-25T06:33:37.262Z,-3.57
2019-01-25T06:36:06.171Z,-3.71
2019-01-25T06:38:37.799Z,-3.80
2019-01-25T06:41:06.541Z,-3.90
2019-01-25T06:43:35.179Z,-4.01
2019-01-25T06:46:03.850Z,-4.13
2019-01-25T06:48:32.520Z,-4.14
2019-01-25T06:51:04.466Z,-4.19
2019-01-25T06:53:33.021Z,-4.26
2019-01-25T06:56:01.589Z,-4.24
2019-01-25T06:58:34.649Z,-4.26
2019-01-25T07:01:04.895Z,-4.29
2019-01-25T07:03:33.680Z,-4.27
2019-01-25T07:06:02.318Z,-3.93
2019-01-25T07:08:30.867Z,-3.77
2019-01-25T07:11:03.802Z,-3.94
2019-01-25T07:13:32.391Z,-4.05
2019-01-25T07:16:00.969Z,-4.12
2019-01-25T07:18:29.537Z,-4.13
2019-01-25T07:20:58.103Z,-3.90
2019-01-25T07:23:26.677Z,-3.67
2019-01-25T07:25:55.237Z,-3.73
2019-01-25T07:28:26.522Z,-3.68
2019-01-25T07:30:55.124Z,-3.60
2019-01-25T07:33:25.246Z,-3.60
2019-01-25T07:35:56.561Z,-3.59
2019-01-25T07:38:25.207Z,-3.66
2019-01-25T07:40:56.503Z,-3.41
2019-01-25T07:43:25.055Z,-3.54
2019-01-25T07:45:56.450Z,-3.42
2019-01-25T07:48:27.837Z,-3.49
2019-01-25T07:50:56.457Z,-3.41
2019-01-25T07:53:28.076Z,-3.50
2019-01-25T07:55:59.448Z,-3.59
2019-01-25T07:58:31.138Z,-3.51
2019-01-25T08:01:02.661Z,-3.42
2019-01-25T08:03:33.962Z,-3.41
2019-01-25T08:06:02.505Z,-3.65
2019-01-25T08:08:34.053Z,-3.51
2019-01-25T08:11:02.963Z,-3.53
2019-01-25T08:13:34.773Z,-3.33
2019-01-25T08:16:06.212Z,-3.36
2019-01-25T08:18:35.448Z,-3.40
2019-01-25T08:21:08.020Z,-3.28
2019-01-25T08:23:36.694Z,-3.40
2019-01-25T08:26:08.085Z,-3.53
2019-01-25T08:28:36.653Z,-3.40
2019-01-25T08:31:06.177Z,-3.17
2019-01-25T08:33:37.916Z,-3.15
2019-01-25T08:36:06.584Z,-3.28
2019-01-25T08:38:35.181Z,-3.16
2019-01-25T08:41:03.885Z,-2.99
2019-01-25T08:43:35.507Z,-2.87
2019-01-25T08:46:07.068Z,-2.81
2019-01-25T08:48:39.041Z,-3.10
2019-01-25T08:51:10.531Z,-3.24
2019-01-25T08:53:41.434Z,-3.09
2019-01-25T08:56:09.607Z,-3.07
2019-01-25T08:58:38.533Z,-2.89
2019-01-25T09:01:10.119Z,-2.79
2019-01-25T09:03:38.692Z,-2.85
2019-01-25T09:06:10.184Z,-3.04
2019-01-25T09:08:38.801Z,-2.94
2019-01-25T09:11:10.443Z,-2.82
2019-01-25T09:13:41.932Z,-2.88
2019-01-25T09:16:10.701Z,-2.81
2019-01-25T09:18:39.479Z,-2.70
2019-01-25T09:21:11.070Z,-2.80
2019-01-25T09:23:42.431Z,-2.71
2019-01-25T09:26:14.202Z,-2.75
2019-01-25T09:28:42.749Z,-2.77
2019-01-25T09:31:11.392Z,-2.89
2019-01-25T09:33:42.500Z,-2.70
2019-01-25T09:36:11.101Z,-2.60
2019-01-25T09:38:39.668Z,-2.85
2019-01-25T09:41:08.692Z,-2.66
2019-01-25T09:43:40.487Z,-2.77
2019-01-25T09:46:12.429Z,-2.96
2019-01-25T09:48:41.389Z,-2.93
2019-01-25T09:51:12.918Z,-3.38
2019-01-25T09:53:44.956Z,-3.31
2019-01-25T09:56:13.589Z,-3.40
2019-01-25T09:58:42.545Z,-3.38
2019-01-25T10:01:14.223Z,-3.44
2019-01-25T10:03:45.862Z,-3.58
2019-01-25T10:06:22.457Z,-3.60
2019-01-25T10:08:51.442Z,-3.68
2019-01-25T10:11:20.044Z,-3.53
2019-01-25T10:13:49.005Z,-3.45
2019-01-25T10:16:17.579Z,-3.45
2019-01-25T10:18:46.164Z,-3.33
2019-01-25T10:21:14.726Z,-3.27
2019-01-25T10:23:43.410Z,-2.92
2019-01-25T10:26:12.016Z,-2.57
2019-01-25T10:28:40.764Z,-2.47
2019-01-25T10:31:09.568Z,-2.49
2019-01-25T10:33:38.327Z,-2.32
2019-01-25T10:36:07.100Z,-2.38
2019-01-25T10:38:38.735Z,-2.11
2019-01-25T10:41:07.789Z,-2.06
2019-01-25T10:43:36.468Z,-2.09
2019-01-25T10:46:07.886Z,-1.91
2019-01-25T10:48:39.231Z,-1.80
2019-01-25T10:51:10.866Z,-1.67
2019-01-25T10:53:43.103Z,-1.48
2019-01-25T10:56:14.497Z,-1.52
2019-01-25T10:58:45.729Z,-1.34
2019-01-25T11:01:14.353Z,-1.09
2019-01-25T11:03:42.924Z,-1.02
2019-01-25T11:06:11.535Z,-1.15
2019-01-25T11:08:40.176Z,-1.38
2019-01-25T11:11:09.411Z,-1.50
2019-01-25T11:13:37.986Z,-1.46
2019-01-25T11:16:11.934Z,-1.82
2019-01-25T11:18:42.769Z,-1.96
2019-01-25T11:21:14.078Z,-1.78
2019-01-25T11:23:45.523Z,-1.79
2019-01-25T11:26:14.394Z,-1.78
2019-01-25T11:28:43.077Z,-2.04
2019-01-25T11:31:14.548Z,-1.89
2019-01-25T11:33:43.465Z,-2.36
2019-01-25T11:36:12.115Z,-2.49
2019-01-25T11:38:40.856Z,-2.59
2019-01-25T11:41:09.561Z,-2.81
2019-01-25T11:43:39.087Z,-2.60
2019-01-25T11:46:07.734Z,-2.59
2019-01-25T11:48:39.521Z,-2.65
2019-01-25T11:51:10.906Z,-2.40
2019-01-25T11:53:40.637Z,-2.55
2019-01-25T11:56:12.096Z,-2.63
2019-01-25T11:58:40.669Z,-2.53
2019-01-25T12:01:09.367Z,-2.30
2019-01-25T12:03:37.990Z,-2.36
2019-01-25T12:06:09.595Z,-2.14
2019-01-25T12:08:41.438Z,-1.98
2019-01-25T12:11:17.502Z,-2.08
2019-01-25T12:13:48.828Z,-1.83
2019-01-25T12:16:17.484Z,-2.05
2019-01-25T12:18:46.100Z,-2.18
2019-01-25T12:21:17.448Z,-2.08
2019-01-25T12:23:48.872Z,-2.06
2019-01-25T12:26:20.242Z,-2.16
2019-01-25T12:28:49.080Z,-2.05
2019-01-25T12:31:18.545Z,-2.27
2019-01-25T12:33:50.024Z,-2.40
2019-01-25T12:36:18.739Z,-2.28
2019-01-25T12:38:47.372Z,-2.30
2019-01-25T12:41:16.071Z,-2.35
2019-01-25T12:43:44.669Z,-2.36
2019-01-25T12:46:16.044Z,-2.35
2019-01-25T12:48:44.655Z,-2.24
2019-01-25T12:51:16.567Z,-2.05
2019-01-25T12:53:48.140Z,-2.11
2019-01-25T12:56:19.720Z,-2.02
2019-01-25T12:58:53.577Z,-1.99
2019-01-25T13:01:22.953Z,-2.22
2019-01-25T13:03:55.599Z,-2.23
2019-01-25T13:06:24.993Z,-2.13
2019-01-25T13:08:55.376Z,-2.09
2019-01-25T13:11:27.034Z,-2.06
2019-01-25T13:13:58.632Z,-1.90
2019-01-25T13:16:27.243Z,-1.89
2019-01-25T13:18:56.329Z,-1.91
2019-01-25T13:21:27.935Z,-1.93
2019-01-25T13:23:59.749Z,-1.91
2019-01-25T13:26:28.671Z,-2.04
2019-01-25T13:28:57.256Z,-2.15
2019-01-25T13:31:28.836Z,-1.98
2019-01-25T13:33:57.491Z,-1.94
2019-01-25T13:36:26.104Z,-1.88
2019-01-25T13:38:54.806Z,-1.81
2019-01-25T13:41:27.398Z,-2.01
2019-01-25T13:43:56.461Z,-2.32
2019-01-25T13:46:25.116Z,-2.15
2019-01-25T13:48:54.726Z,-2.08
2019-01-25T13:51:23.356Z,-2.25
2019-01-25T13:53:54.431Z,-2.50
2019-01-25T13:56:25.723Z,-2.43
2019-01-25T13:58:54.342Z,-2.23
2019-01-25T14:01:24.927Z,-2.23
2019-01-25T14:03:53.566Z,-2.39
2019-01-25T14:06:22.125Z,-2.47
2019-01-25T14:08:51.797Z,-2.56
2019-01-25T14:11:25.981Z,-2.41
2019-01-25T14:13:57.767Z,-2.24
2019-01-25T14:16:26.438Z,-2.31
2019-01-25T14:18:58.086Z,-2.31
2019-01-25T14:21:29.707Z,-2.28
2019-01-25T14:24:17.642Z,-2.48
2019-01-25T14:26:46.216Z,-2.58
2019-01-25T14:29:15.923Z,-2.50
2019-01-25T14:31:44.967Z,-2.37
2019-01-25T14:34:16.545Z,-2.45
2019-01-25T14:36:45.217Z,-2.49
2019-01-25T14:39:14.274Z,-2.51
2019-01-25T14:41:42.994Z,-2.58
2019-01-25T14:44:11.928Z,-2.53
2019-01-25T14:46:40.539Z,-2.52
2019-01-25T14:49:09.127Z,-2.57
2019-01-25T14:51:38.013Z,-2.57
2019-01-25T14:54:06.761Z,-2.67
2019-01-25T14:56:35.666Z,-2.65
2019-01-25T14:59:07.199Z,-2.58
2019-01-25T15:01:38.577Z,-2.83
2019-01-25T15:04:10.155Z,-3.00
2019-01-25T15:06:38.767Z,-3.07
2019-01-25T15:09:10.663Z,-3.22
2019-01-25T15:11:41.952Z,-3.21
2019-01-25T15:14:13.757Z,-3.24
2019-01-25T15:16:42.380Z,-3.17
2019-01-25T15:19:11.028Z,-3.24
2019-01-25T15:21:43.010Z,-3.24
2019-01-25T15:24:11.621Z,-3.04
2019-01-25T15:26:40.222Z,-3.05
2019-01-25T15:29:11.469Z,-3.22
2019-01-25T15:31:42.865Z,-3.13
2019-01-25T15:34:11.437Z,-3.12
2019-01-25T15:36:42.778Z,-3.11
2019-01-25T15:39:14.532Z,-3.03
2019-01-25T15:41:43.326Z,-3.11
2019-01-25T15:44:12.653Z,-3.02
2019-01-25T15:46:41.415Z,-3.07
2019-01-25T15:49:10.425Z,-2.95
2019-01-25T15:51:39.343Z,-3.01
2019-01-25T15:54:07.957Z,-3.01
2019-01-25T15:56:36.501Z,-3.04
2019-01-25T15:59:05.153Z,-2.96
2019-01-25T16:01:37.001Z,-2.95
2019-01-25T16:04:05.571Z,-2.91
2019-01-25T16:06:34.167Z,-2.99
2019-01-25T16:09:07.192Z,-2.93
2019-01-25T16:11:35.790Z,-2.81
2019-01-25T16:14:04.436Z,-2.92
2019-01-25T16:16:36.023Z,-2.85
2019-01-25T16:19:04.640Z,-2.84
2019-01-25T16:21:33.289Z,-2.85
2019-01-25T16:24:05.218Z,-2.91
2019-01-25T16:26:33.949Z,-2.88
2019-01-25T16:29:05.691Z,-2.77
2019-01-25T16:31:37.325Z,-2.66
2019-01-25T16:34:05.941Z,-2.89
2019-01-25T16:36:37.548Z,-2.84
2019-01-25T16:39:07.728Z,-3.02
2019-01-25T16:41:36.761Z,-3.10
2019-01-25T16:44:06.178Z,-3.12
2019-01-25T16:46:34.834Z,-3.09
2019-01-25T16:49:03.405Z,-3.14
2019-01-25T16:51:31.990Z,-3.17
2019-01-25T16:54:00.641Z,-3.08
2019-01-25T16:56:29.352Z,-3.16
2019-01-25T16:58:58.064Z,-3.13
2019-01-25T17:01:26.895Z,-3.11
2019-01-25T17:03:55.506Z,-3.00
2019-01-25T17:06:24.062Z,-3.18
2019-01-25T17:08:52.650Z,-3.08
2019-01-25T17:11:23.666Z,-3.08
2019-01-25T17:13:52.280Z,-3.09
2019-01-25T17:16:20.982Z,-3.18
2019-01-25T17:18:50.017Z,-3.03
2019-01-25T17:21:18.626Z,-3.06
2019-01-25T17:23:49.964Z,-3.13
2019-01-25T17:26:18.991Z,-2.95
2019-01-25T17:28:50.512Z,-2.99
2019-01-25T17:31:23.557Z,-2.84
2019-01-25T17:33:54.945Z,-3.03
2019-01-25T17:36:23.555Z,-3.02
2019-01-25T17:38:52.186Z,-3.09
2019-01-25T17:41:23.961Z,-2.93
2019-01-25T17:43:55.780Z,-3.01
2019-01-25T17:46:24.538Z,-3.06
2019-01-25T17:48:56.212Z,-2.95
2019-01-25T17:51:27.587Z,-2.96
2019-01-25T17:53:59.117Z,-2.91
2019-01-25T17:56:28.183Z,-2.88
2019-01-25T17:58:59.972Z,-2.77
2019-01-25T18:01:28.684Z,-2.85
2019-01-25T18:03:57.245Z,-2.84
2019-01-25T18:06:25.928Z,-3.03
2019-01-25T18:08:57.655Z,-3.02
2019-01-25T18:11:26.357Z,-2.99
2019-01-25T18:13:55.035Z,-3.11
2019-01-25T18:16:25.258Z,-3.11
2019-01-25T18:18:56.797Z,-3.20
2019-01-25T18:21:25.458Z,-2.94
2019-01-25T18:23:54.365Z,-3.09
2019-01-25T18:26:24.486Z,-3.06
2019-01-25T18:28:54.805Z,-3.13
2019-01-25T18:31:27.872Z,-3.17
2019-01-25T18:33:56.649Z,-3.17
2019-01-25T18:36:25.256Z,-3.21
2019-01-25T18:38:59.804Z,-3.27
2019-01-25T18:41:28.483Z,-3.17
2019-01-25T18:43:59.733Z,-3.26
2019-01-25T18:46:28.340Z,-3.28
2019-01-25T18:48:56.912Z,-3.27
2019-01-25T18:51:25.522Z,-3.19
2019-01-25T18:53:56.949Z,-3.22
2019-01-25T18:56:25.662Z,-3.24
2019-01-25T18:58:54.382Z,-3.19
2019-01-25T19:01:25.951Z,-3.11
2019-01-25T19:03:54.766Z,-3.06
2019-01-25T19:06:23.477Z,-3.09
2019-01-25T19:08:55.065Z,-3.13
2019-01-25T19:11:25.656Z,-3.16
2019-01-25T19:13:54.207Z,-3.16
2019-01-25T19:16:24.323Z,-3.16
2019-01-25T19:18:55.555Z,-3.10
2019-01-25T19:21:24.227Z,-2.99
2019-01-25T19:23:54.306Z,-3.04
2019-01-25T19:26:24.440Z,-3.11
2019-01-25T19:28:53.409Z,-3.07
2019-01-25T19:31:22.557Z,-3.09
2019-01-25T19:33:54.101Z,-3.07
2019-01-25T19:36:24.420Z,-3.00
2019-01-25T19:38:54.263Z,-2.96
2019-01-25T19:41:24.869Z,-2.93
2019-01-25T19:43:53.470Z,-2.85
2019-01-25T19:46:22.404Z,-2.73
2019-01-25T19:48:51.542Z,-2.77
2019-01-25T19:51:20.149Z,-2.75
2019-01-25T19:53:51.690Z,-2.54
2019-01-25T19:56:20.261Z,-2.57
2019-01-25T19:58:50.203Z,-2.53
2019-01-25T20:01:23.427Z,-2.48
2019-01-25T20:03:54.860Z,-2.50
2019-01-25T20:06:23.848Z,-2.53
2019-01-25T20:08:55.091Z,-2.48
2019-01-25T20:11:26.676Z,-2.58
2019-01-25T20:13:58.187Z,-2.66
2019-01-25T20:16:29.475Z,-2.53
2019-01-25T20:18:58.076Z,-2.54
2019-01-25T20:21:26.651Z,-2.66
2019-01-25T20:23:58.005Z,-2.64
2019-01-25T20:26:26.615Z,-2.61
2019-01-25T20:28:55.226Z,-2.65
2019-01-25T20:31:30.292Z,-2.59
2019-01-25T20:33:59.333Z,-2.70
2019-01-25T20:36:27.940Z,-2.65
2019-01-25T20:38:59.566Z,-2.62
2019-01-25T20:41:31.110Z,-2.73
2019-01-25T20:44:00.153Z,-2.72
2019-01-25T20:46:31.945Z,-2.69
2019-01-25T20:49:01.409Z,-2.72
2019-01-25T20:51:32.750Z,-2.70
2019-01-25T20:54:01.849Z,-2.79
2019-01-25T20:56:30.911Z,-2.64
2019-01-25T20:59:02.206Z,-2.75
2019-01-25T21:01:31.051Z,-2.82
2019-01-25T21:04:02.871Z,-2.79
2019-01-25T21:06:34.414Z,-2.75
2019-01-25T21:09:07.610Z,-2.83
2019-01-25T21:11:39.135Z,-2.75
2019-01-25T21:14:07.750Z,-2.73
2019-01-25T21:16:39.138Z,-2.69
2019-01-25T21:19:07.710Z,-2.77
2019-01-25T21:21:36.341Z,-2.61
2019-01-25T21:24:05.142Z,-2.70
2019-01-25T21:26:37.007Z,-2.78
2019-01-25T21:29:06.173Z,-2.76
2019-01-25T21:31:37.965Z,-2.83
2019-01-25T21:34:09.835Z,-2.86
2019-01-25T21:36:40.106Z,-2.76
2019-01-25T21:39:08.996Z,-2.81
2019-01-25T21:41:37.610Z,-2.70
2019-01-25T21:44:09.124Z,-2.87
2019-01-25T21:46:40.374Z,-2.81
2019-01-25T21:49:08.024Z,-2.85
2019-01-25T21:51:39.345Z,-2.84
2019-01-25T21:54:11.328Z,-2.84
2019-01-25T21:56:39.940Z,-2.81
2019-01-25T21:59:11.479Z,-2.87
2019-01-25T22:01:40.222Z,-2.74
2019-01-25T22:04:08.822Z,-2.81
2019-01-25T22:06:40.672Z,-2.73
2019-01-25T22:09:12.208Z,-2.77
2019-01-25T22:11:40.838Z,-2.84
2019-01-25T22:14:09.464Z,-2.72
2019-01-25T22:16:41.276Z,-2.71
2019-01-25T22:19:09.986Z,-2.56
2019-01-25T22:21:38.630Z,-2.57
2019-01-25T22:24:07.472Z,-2.56
2019-01-25T22:26:36.808Z,-2.66
2019-01-25T22:29:05.860Z,-2.62
2019-01-25T22:31:34.911Z,-2.43
2019-01-25T22:34:03.547Z,-2.59
2019-01-25T22:36:34.843Z,-2.57
2019-01-25T22:39:04.971Z,-2.55
2019-01-25T22:41:34.020Z,-2.49
2019-01-25T22:44:05.428Z,-2.45
2019-01-25T22:46:34.517Z,-2.47
2019-01-25T22:49:03.235Z,-2.48
2019-01-25T22:51:35.168Z,-2.53
2019-01-25T22:54:03.738Z,-2.48
2019-01-25T22:56:35.073Z,-2.65
2019-01-25T22:59:03.703Z,-2.65
2019-01-25T23:01:35.373Z,-2.68
2019-01-25T23:04:07.154Z,-2.58
2019-01-25T23:06:41.585Z,-2.50
2019-01-25T23:09:16.375Z,-2.66
2019-01-25T23:11:45.742Z,-2.57
2019-01-25T23:14:14.864Z,-2.62
2019-01-25T23:16:47.367Z,-2.69
2019-01-25T23:19:16.143Z,-2.72
2019-01-25T23:21:48.685Z,-2.55
2019-01-25T23:24:17.423Z,-2.67
2019-01-25T23:26:48.913Z,-2.61
2019-01-25T23:29:17.547Z,-2.69
2019-01-25T23:31:46.179Z,-2.70
2019-01-25T23:34:14.788Z,-2.71
2019-01-25T23:36:46.253Z,-2.69
2019-01-25T23:39:17.789Z,-2.70
2019-01-25T23:41:46.441Z,-2.73
2019-01-25T23:44:18.029Z,-2.72
2019-01-25T23:46:46.845Z,-2.76
2019-01-25T23:49:15.459Z,-2.81
2019-01-25T23:51:46.835Z,-2.78
2019-01-25T23:54:18.311Z,-2.73
2019-01-25T23:56:47.027Z,-2.73
2019-01-25T23:59:15.664Z,-2.69
